createdAt,value
2024-01-25T00:01:25.119Z,0.50
2024-01-25T00:03:52.353Z,0.50
2024-01-25T00:06:19.579Z,0.50
2024-01-25T00:08:46.614Z,0.50
2024-01-25T00:11:13.669Z,0.50
2024-01-25T00:13:41.010Z,0.40
2024-01-25T00:16:08.209Z,0.50
2024-01-25T00:18:35.492Z,0.50
2024-01-25T00:21:03.096Z,0.50
2024-01-25T00:23:30.166Z,0.70
2024-01-25T00:26:00.980Z,0.60
2024-01-25T00:28:29.575Z,0.50
2024-01-25T00:30:56.792Z,0.50
2024-01-25T00:33:24.134Z,0.70
2024-01-25T00:35:51.735Z,0.53
2024-01-25T00:38:19.618Z,0.50
2024-01-25T00:40:47.150Z,0.60
2024-01-25T00:43:15.726Z,0.60
2024-01-25T00:45:43.264Z,0.70
2024-01-25T00:48:11.087Z,0.50
2024-01-25T00:50:39.580Z,0.40
2024-01-25T00:53:07.095Z,0.60
2024-01-25T00:55:34.591Z,0.60
2024-01-25T00:58:02.080Z,0.53
2024-01-25T01:00:29.633Z,0.40
2024-01-25T01:03:00.329Z,0.53
2024-01-25T01:05:28.060Z,0.50
2024-01-25T01:07:55.479Z,0.53
2024-01-25T01:10:22.773Z,0.53
2024-01-25T01:12:50.032Z,0.50
2024-01-25T01:15:17.476Z,0.60
2024-01-25T01:17:44.533Z,0.77
2024-01-25T01:20:12.172Z,0.50
2024-01-25T01:22:39.356Z,0.50
2024-01-25T01:25:06.519Z,0.60
2024-01-25T01:27:33.589Z,0.50
2024-01-25T01:30:00.728Z,0.60
2024-01-25T01:32:27.968Z,0.40
2024-01-25T01:34:55.246Z,0.70
2024-01-25T01:37:22.466Z,0.63
2024-01-25T01:39:49.722Z,0.70
2024-01-25T01:42:16.908Z,0.40
2024-01-25T01:44:43.877Z,0.60
2024-01-25T01:47:11.129Z,0.60
2024-01-25T01:49:38.531Z,0.73
2024-01-25T01:52:06.705Z,0.43
2024-01-25T01:54:33.875Z,0.50
2024-01-25T01:57:03.335Z,0.50
2024-01-25T01:59:30.933Z,0.60
2024-01-25T02:01:58.049Z,0.47
2024-01-25T02:04:25.289Z,0.50
2024-01-25T02:06:52.827Z,0.60
2024-01-25T02:09:20.160Z,0.63
2024-01-25T02:11:47.275Z,0.67
2024-01-25T02:14:14.372Z,0.60
2024-01-25T02:16:46.595Z,0.73
2024-01-25T02:19:14.579Z,0.43
2024-01-25T02:21:42.627Z,0.60
2024-01-25T02:24:09.799Z,0.50
2024-01-25T02:26:37.447Z,0.50
2024-01-25T02:29:06.123Z,0.60
2024-01-25T02:31:33.228Z,0.47
2024-01-25T02:34:00.350Z,0.50
2024-01-25T02:36:27.484Z,0.63
2024-01-25T02:38:54.571Z,0.60
2024-01-25T02:41:21.605Z,0.70
2024-01-25T02:43:48.598Z,0.50
2024-01-25T02:46:15.742Z,0.70
2024-01-25T02:48:42.963Z,0.50
2024-01-25T02:51:10.157Z,0.50
2024-01-25T02:53:37.196Z,0.70
2024-01-25T02:56:04.733Z,0.50
2024-01-25T02:58:31.703Z,0.50
2024-01-25T03:00:58.919Z,1.53
2024-01-25T03:03:26.068Z,0.40
2024-01-25T03:05:53.559Z,0.63
2024-01-25T03:08:20.693Z,0.60
2024-01-25T03:10:50.675Z,0.50
2024-01-25T03:13:18.029Z,0.80
2024-01-25T03:15:45.301Z,0.60
2024-01-25T03:18:12.989Z,0.40
2024-01-25T03:20:40.196Z,0.53
2024-01-25T03:23:07.230Z,0.60
2024-01-25T03:25:34.383Z,0.50
2024-01-25T03:28:01.426Z,0.60
2024-01-25T03:30:28.571Z,0.50
2024-01-25T03:32:55.751Z,0.50
2024-01-25T03:35:23.059Z,0.80
2024-01-25T03:37:50.245Z,0.60
2024-01-25T03:40:17.559Z,0.50
2024-01-25T03:42:54.278Z,0.40
2024-01-25T03:45:31.477Z,0.70
2024-01-25T03:47:58.623Z,0.83
2024-01-25T03:50:25.946Z,0.47
2024-01-25T03:52:53.054Z,0.50
2024-01-25T03:55:20.140Z,0.70
2024-01-25T03:57:47.319Z,0.50
2024-01-25T04:00:14.785Z,0.50
2024-01-25T04:02:41.807Z,0.57
2024-01-25T04:05:09.127Z,0.70
2024-01-25T04:07:37.284Z,0.50
2024-01-25T04:10:04.791Z,0.53
2024-01-25T04:12:32.727Z,0.43
2024-01-25T04:14:59.934Z,0.50
2024-01-25T04:17:27.000Z,0.60
2024-01-25T04:19:54.223Z,0.60
2024-01-25T04:22:21.468Z,0.50
2024-01-25T04:24:50.786Z,0.50
2024-01-25T04:27:17.859Z,0.50
2024-01-25T04:29:45.142Z,0.60
2024-01-25T04:32:13.775Z,0.40
2024-01-25T04:34:41.110Z,0.40
2024-01-25T04:37:08.376Z,0.70
2024-01-25T04:39:35.515Z,0.60
2024-01-25T04:42:02.623Z,0.40
2024-01-25T04:44:29.684Z,0.40
2024-01-25T04:46:57.583Z,0.40
2024-01-25T04:49:24.660Z,0.50
2024-01-25T04:51:52.038Z,0.50
2024-01-25T04:54:19.182Z,0.53
2024-01-25T04:56:46.316Z,0.47
2024-01-25T04:59:13.451Z,0.40
2024-01-25T05:01:40.571Z,0.40
2024-01-25T05:04:07.800Z,0.53
2024-01-25T05:06:35.219Z,0.50
2024-01-25T05:09:02.341Z,0.50
2024-01-25T05:11:29.387Z,0.40
2024-01-25T05:13:56.785Z,0.40
2024-01-25T05:16:24.011Z,0.40
2024-01-25T05:18:51.314Z,0.43
2024-01-25T05:21:18.504Z,0.40
2024-01-25T05:23:45.614Z,0.40
2024-01-25T05:26:12.675Z,0.50
2024-01-25T05:28:39.940Z,0.50
2024-01-25T05:31:10.934Z,0.40
2024-01-25T05:33:38.222Z,0.40
2024-01-25T05:36:06.258Z,0.40
2024-01-25T05:38:33.445Z,0.40
2024-01-25T05:41:00.535Z,0.40
2024-01-25T05:43:27.841Z,0.50
2024-01-25T05:45:55.017Z,0.40
2024-01-25T05:48:22.098Z,0.40
2024-01-25T05:50:49.308Z,0.43
2024-01-25T05:53:20.272Z,0.40
2024-01-25T05:55:47.288Z,0.60
2024-01-25T05:58:14.605Z,0.40
2024-01-25T06:00:41.837Z,0.40
2024-01-25T06:03:08.968Z,0.40
2024-01-25T06:05:36.199Z,0.30
2024-01-25T06:08:03.472Z,0.40
2024-01-25T06:10:30.742Z,0.40
2024-01-25T06:12:57.975Z,0.40
2024-01-25T06:15:25.107Z,0.33
2024-01-25T06:17:52.129Z,0.40
2024-01-25T06:20:19.397Z,0.50
2024-01-25T06:22:46.626Z,0.50
2024-01-25T06:25:13.652Z,0.40
2024-01-25T06:27:40.925Z,0.40
2024-01-25T06:30:08.603Z,0.40
2024-01-25T06:32:35.805Z,0.43
2024-01-25T06:35:02.958Z,0.40
2024-01-25T06:37:30.167Z,0.40
2024-01-25T06:39:57.364Z,0.50
2024-01-25T06:42:24.446Z,0.50
2024-01-25T06:44:51.622Z,0.40
2024-01-25T06:47:21.374Z,0.50
2024-01-25T06:49:52.753Z,0.40
2024-01-25T06:52:20.701Z,0.40
2024-01-25T06:54:48.008Z,0.40
2024-01-25T06:57:18.116Z,0.73
2024-01-25T06:59:45.128Z,0.93
2024-01-25T07:02:13.418Z,0.40
2024-01-25T07:04:42.187Z,0.50
2024-01-25T07:07:10.695Z,0.40
2024-01-25T07:09:37.873Z,1.10
2024-01-25T07:12:05.452Z,0.93
2024-01-25T07:14:32.779Z,1.53
2024-01-25T07:16:59.901Z,0.90
2024-01-25T07:19:26.951Z,0.50
2024-01-25T07:21:54.158Z,0.50
2024-01-25T07:24:21.346Z,0.50
2024-01-25T07:26:48.400Z,0.40
2024-01-25T07:29:15.443Z,0.50
2024-01-25T07:31:42.582Z,0.50
2024-01-25T07:34:10.248Z,0.40
2024-01-25T07:36:37.428Z,0.57
2024-01-25T07:39:04.891Z,0.40
2024-01-25T07:41:31.957Z,0.37
2024-01-25T07:43:59.040Z,0.40
2024-01-25T07:46:26.368Z,0.30
2024-01-25T07:48:53.765Z,0.40
2024-01-25T07:51:21.020Z,0.40
2024-01-25T07:53:48.170Z,0.40
2024-01-25T07:56:15.352Z,0.40
2024-01-25T07:58:42.393Z,0.50
2024-01-25T08:01:10.592Z,0.40
2024-01-25T08:03:38.451Z,0.40
2024-01-25T08:06:06.193Z,0.40
2024-01-25T08:08:33.348Z,0.40
2024-01-25T08:11:00.415Z,0.40
2024-01-25T08:13:31.440Z,0.40
2024-01-25T08:16:00.433Z,0.40
2024-01-25T08:18:30.524Z,0.30
2024-01-25T08:20:58.004Z,0.50
2024-01-25T08:23:25.108Z,0.43
2024-01-25T08:25:52.259Z,0.40
2024-01-25T08:28:19.636Z,0.30
2024-01-25T08:30:47.300Z,0.40
2024-01-25T08:33:14.946Z,0.50
2024-01-25T08:35:42.273Z,0.40
2024-01-25T08:38:09.458Z,0.40
2024-01-25T08:40:36.741Z,0.40
2024-01-25T08:43:05.886Z,0.40
2024-01-25T08:45:33.305Z,0.40
2024-01-25T08:48:01.360Z,0.40
2024-01-25T08:50:28.889Z,0.50
2024-01-25T08:52:56.643Z,0.57
2024-01-25T08:55:23.997Z,0.50
2024-01-25T08:57:51.674Z,0.40
2024-01-25T09:00:19.643Z,0.50
2024-01-25T09:02:47.237Z,0.40
2024-01-25T09:05:14.574Z,0.43
2024-01-25T09:07:42.805Z,0.40
2024-01-25T09:10:10.232Z,0.40
2024-01-25T09:12:40.705Z,0.33
2024-01-25T09:15:09.604Z,0.40
2024-01-25T09:17:37.416Z,0.40
2024-01-25T09:20:05.660Z,0.60
2024-01-25T09:22:33.114Z,0.50
2024-01-25T09:25:00.354Z,0.40
2024-01-25T09:27:27.416Z,0.40
2024-01-25T09:29:54.548Z,0.50
2024-01-25T09:32:22.018Z,0.50
2024-01-25T09:34:49.405Z,0.40
2024-01-25T09:37:18.719Z,0.90
2024-01-25T09:39:46.294Z,0.47
2024-01-25T09:42:13.729Z,0.50
2024-01-25T09:44:42.102Z,0.70
2024-01-25T09:47:09.883Z,0.80
2024-01-25T09:49:38.897Z,0.73
2024-01-25T09:52:07.080Z,0.60
2024-01-25T09:54:38.027Z,0.67
2024-01-25T09:57:09.033Z,0.70
2024-01-25T09:59:36.248Z,0.83
2024-01-25T10:02:04.026Z,0.70
2024-01-25T10:04:31.302Z,0.80
2024-01-25T10:06:59.673Z,0.70
2024-01-25T10:09:26.713Z,0.60
2024-01-25T10:11:59.498Z,0.63
2024-01-25T10:14:37.699Z,0.73
2024-01-25T10:17:05.190Z,0.63
2024-01-25T10:19:32.864Z,0.80
2024-01-25T10:22:00.614Z,0.63
2024-01-25T10:24:29.468Z,0.80
2024-01-25T10:26:56.680Z,0.90
2024-01-25T10:29:26.753Z,0.70
2024-01-25T10:31:53.930Z,0.80
2024-01-25T10:34:23.410Z,0.70
2024-01-25T10:36:53.341Z,0.80
2024-01-25T10:39:23.019Z,0.53
2024-01-25T10:41:52.523Z,0.70
2024-01-25T10:44:20.520Z,0.50
2024-01-25T10:46:50.948Z,0.80
2024-01-25T10:49:19.422Z,0.80
2024-01-25T10:51:47.531Z,0.53
2024-01-25T10:54:16.110Z,1.00
2024-01-25T10:56:43.777Z,0.97
2024-01-25T10:59:12.239Z,0.70
2024-01-25T11:01:39.508Z,1.10
2024-01-25T11:04:18.696Z,1.03
2024-01-25T11:06:49.616Z,1.00
2024-01-25T11:09:22.067Z,0.70
2024-01-25T11:11:50.771Z,1.27
2024-01-25T11:14:20.690Z,1.07
2024-01-25T11:16:48.721Z,0.77
2024-01-25T11:19:21.543Z,0.93
2024-01-25T11:21:51.405Z,0.87
2024-01-25T11:24:29.068Z,0.90
2024-01-25T11:26:56.412Z,1.10
2024-01-25T11:29:25.340Z,1.03
2024-01-25T11:31:53.765Z,1.03
2024-01-25T11:34:22.061Z,1.60
2024-01-25T11:36:49.734Z,1.40
2024-01-25T11:39:18.106Z,0.77
2024-01-25T11:41:46.184Z,0.90
2024-01-25T11:44:14.785Z,0.80
2024-01-25T11:46:42.242Z,0.97
2024-01-25T11:49:09.727Z,0.80
2024-01-25T11:51:37.398Z,0.90
2024-01-25T11:54:08.256Z,0.90
2024-01-25T11:56:39.919Z,0.97
2024-01-25T11:59:07.235Z,0.90
2024-01-25T12:01:34.606Z,1.00
2024-01-25T12:04:02.915Z,1.13
2024-01-25T12:06:31.392Z,0.60
2024-01-25T12:09:09.696Z,0.93
2024-01-25T12:11:37.016Z,0.77
2024-01-25T12:14:04.020Z,1.07
2024-01-25T12:16:33.488Z,0.80
2024-01-25T12:19:01.493Z,0.90
2024-01-25T12:21:28.675Z,0.80
2024-01-25T12:23:55.639Z,0.90
2024-01-25T12:26:22.746Z,0.90
2024-01-25T12:28:50.975Z,0.70
2024-01-25T12:31:21.114Z,1.00
2024-01-25T12:33:48.258Z,1.20
2024-01-25T12:36:15.466Z,0.60
2024-01-25T12:38:42.682Z,0.70
2024-01-25T12:41:10.016Z,1.10
2024-01-25T12:43:37.486Z,1.20
2024-01-25T12:46:13.493Z,1.00
2024-01-25T12:48:49.507Z,0.97
2024-01-25T12:51:17.116Z,1.13
2024-01-25T12:53:44.501Z,0.80
2024-01-25T12:56:11.636Z,0.83
2024-01-25T12:58:41.531Z,0.60
2024-01-25T13:01:09.315Z,0.90
2024-01-25T13:03:37.178Z,0.93
2024-01-25T13:06:07.029Z,0.77
2024-01-25T13:08:34.143Z,0.70
2024-01-25T13:11:01.250Z,0.90
2024-01-25T13:13:28.273Z,0.93
2024-01-25T13:15:55.537Z,0.97
2024-01-25T13:18:22.688Z,0.80
2024-01-25T13:20:49.781Z,1.37
2024-01-25T13:23:17.083Z,1.10
2024-01-25T13:25:44.188Z,0.97
2024-01-25T13:28:11.241Z,0.70
2024-01-25T13:30:41.357Z,0.70
2024-01-25T13:33:08.553Z,1.00
2024-01-25T13:35:35.703Z,0.80
2024-01-25T13:38:03.208Z,0.70
2024-01-25T13:40:30.491Z,0.70
2024-01-25T13:42:57.894Z,0.80
2024-01-25T13:45:25.039Z,1.20
2024-01-25T13:47:52.204Z,0.80
2024-01-25T13:50:19.280Z,0.70
2024-01-25T13:52:46.397Z,0.83
2024-01-25T13:55:13.404Z,1.20
2024-01-25T13:57:40.494Z,0.80
2024-01-25T14:00:09.339Z,0.73
2024-01-25T14:02:46.170Z,0.90
2024-01-25T14:05:13.612Z,0.70
2024-01-25T14:07:40.800Z,0.90
2024-01-25T14:10:08.516Z,0.60
2024-01-25T14:12:35.837Z,0.80
2024-01-25T14:15:03.594Z,0.80
2024-01-25T14:17:30.934Z,0.90
2024-01-25T14:19:58.197Z,0.80
2024-01-25T14:22:30.125Z,0.67
2024-01-25T14:25:00.450Z,0.97
2024-01-25T14:27:28.462Z,0.80
2024-01-25T14:29:56.236Z,0.70
2024-01-25T14:32:24.351Z,0.90
2024-01-25T14:34:52.204Z,0.70
2024-01-25T14:37:19.522Z,0.60
2024-01-25T14:39:56.630Z,0.77
2024-01-25T14:42:34.114Z,0.80
2024-01-25T14:45:01.218Z,0.70
2024-01-25T14:47:28.354Z,0.60
2024-01-25T14:49:55.407Z,0.70
2024-01-25T14:52:22.431Z,0.80
2024-01-25T14:54:49.725Z,0.73
2024-01-25T14:57:16.853Z,1.00
2024-01-25T14:59:44.351Z,0.80
2024-01-25T15:02:11.475Z,0.87
2024-01-25T15:04:38.804Z,1.00
2024-01-25T15:07:06.024Z,0.90
2024-01-25T15:09:33.986Z,0.50
2024-01-25T15:12:01.285Z,0.70
2024-01-25T15:14:28.528Z,0.80
2024-01-25T15:16:55.533Z,0.60
2024-01-25T15:19:23.035Z,0.87
2024-01-25T15:21:50.397Z,0.90
2024-01-25T15:24:17.681Z,0.60
2024-01-25T15:26:45.247Z,0.80
2024-01-25T15:29:12.510Z,0.60
2024-01-25T15:31:39.671Z,0.50
2024-01-25T15:34:07.515Z,0.70
2024-01-25T15:36:36.332Z,0.60
2024-01-25T15:39:04.815Z,0.73
2024-01-25T15:41:31.938Z,1.20
2024-01-25T15:43:59.116Z,1.17
2024-01-25T15:46:26.097Z,0.80
2024-01-25T15:48:55.768Z,0.63
2024-01-25T15:51:24.915Z,0.63
2024-01-25T15:53:52.031Z,0.70
2024-01-25T15:56:19.174Z,0.80
2024-01-25T15:58:46.231Z,0.50
2024-01-25T16:01:13.436Z,0.50
2024-01-25T16:03:40.897Z,0.63
2024-01-25T16:06:08.308Z,0.87
2024-01-25T16:08:38.335Z,0.53
2024-01-25T16:11:07.841Z,0.63
2024-01-25T16:13:35.203Z,0.80
2024-01-25T16:16:02.402Z,0.93
2024-01-25T16:18:29.671Z,0.80
2024-01-25T16:20:56.840Z,1.23
2024-01-25T16:23:23.944Z,1.37
2024-01-25T16:25:51.071Z,1.33
2024-01-25T16:28:18.868Z,1.13
2024-01-25T16:30:45.999Z,2.00
2024-01-25T16:33:13.965Z,1.63
2024-01-25T16:35:41.105Z,1.17
2024-01-25T16:38:08.102Z,1.10
2024-01-25T16:40:35.186Z,1.10
2024-01-25T16:43:02.293Z,1.30
2024-01-25T16:45:29.371Z,1.30
2024-01-25T16:47:56.488Z,1.90
2024-01-25T16:50:23.680Z,1.20
2024-01-25T16:52:52.490Z,1.90
2024-01-25T16:55:19.492Z,1.40
2024-01-25T16:57:46.615Z,1.10
2024-01-25T17:00:17.035Z,1.30
2024-01-25T17:02:45.578Z,1.60
2024-01-25T17:05:12.774Z,1.20
2024-01-25T17:07:39.978Z,2.43
2024-01-25T17:10:07.554Z,1.50
2024-01-25T17:12:36.218Z,1.50
2024-01-25T17:15:03.392Z,2.23
2024-01-25T17:17:30.503Z,1.90
2024-01-25T17:20:00.121Z,2.20
2024-01-25T17:22:28.143Z,2.20
2024-01-25T17:24:55.876Z,1.30
2024-01-25T17:27:23.790Z,1.00
2024-01-25T17:29:51.090Z,0.83
2024-01-25T17:32:18.197Z,1.10
2024-01-25T17:34:45.382Z,1.70
2024-01-25T17:37:12.435Z,1.00
2024-01-25T17:39:39.437Z,0.90
2024-01-25T17:42:06.591Z,0.90
2024-01-25T17:44:33.564Z,1.50
2024-01-25T17:47:00.694Z,0.90
2024-01-25T17:49:27.931Z,1.00
2024-01-25T17:51:55.058Z,1.30
2024-01-25T17:54:22.593Z,1.07
2024-01-25T17:56:49.811Z,1.10
2024-01-25T17:59:16.897Z,0.93
2024-01-25T18:01:47.240Z,1.70
2024-01-25T18:04:14.377Z,1.50
2024-01-25T18:06:41.554Z,1.90
2024-01-25T18:09:08.769Z,1.60
2024-01-25T18:11:35.976Z,1.17
2024-01-25T18:14:03.039Z,1.30
2024-01-25T18:16:30.092Z,1.00
2024-01-25T18:19:00.410Z,1.10
2024-01-25T18:21:27.794Z,1.43
2024-01-25T18:23:54.893Z,1.63
2024-01-25T18:26:22.306Z,1.17
2024-01-25T18:28:49.426Z,1.10
2024-01-25T18:31:19.412Z,1.30
2024-01-25T18:33:47.034Z,1.10
2024-01-25T18:36:14.644Z,1.40
2024-01-25T18:38:41.946Z,1.77
2024-01-25T18:41:11.415Z,2.33
2024-01-25T18:43:38.881Z,2.83
2024-01-25T18:46:09.522Z,2.20
2024-01-25T18:48:36.876Z,2.70
2024-01-25T18:51:08.186Z,1.73
2024-01-25T18:53:36.279Z,1.20
2024-01-25T18:56:03.835Z,1.67
2024-01-25T18:58:31.618Z,3.07
2024-01-25T19:00:59.547Z,1.57
2024-01-25T19:03:27.147Z,1.40
2024-01-25T19:05:57.309Z,1.27
2024-01-25T19:08:26.395Z,1.30
2024-01-25T19:10:55.149Z,1.60
2024-01-25T19:13:23.025Z,1.33
2024-01-25T19:15:53.215Z,1.43
2024-01-25T19:18:20.963Z,0.90
2024-01-25T19:20:48.094Z,1.20
2024-01-25T19:23:15.224Z,1.43
2024-01-25T19:25:42.482Z,4.10
2024-01-25T19:28:09.566Z,1.30
2024-01-25T19:30:37.202Z,1.97
2024-01-25T19:33:05.661Z,2.37
2024-01-25T19:35:32.807Z,1.57
2024-01-25T19:37:59.813Z,1.50
2024-01-25T19:40:26.870Z,2.10
2024-01-25T19:42:54.087Z,1.90
2024-01-25T19:45:21.387Z,1.90
2024-01-25T19:47:49.046Z,1.37
2024-01-25T19:50:16.415Z,1.97
2024-01-25T19:52:44.916Z,1.63
2024-01-25T19:55:12.312Z,1.90
2024-01-25T19:57:40.716Z,2.70
2024-01-25T20:00:08.749Z,1.20
2024-01-25T20:02:36.053Z,1.63
2024-01-25T20:05:03.558Z,1.70
2024-01-25T20:07:31.168Z,1.80
2024-01-25T20:09:59.886Z,1.47
2024-01-25T20:12:26.902Z,1.33
2024-01-25T20:14:54.003Z,1.00
2024-01-25T20:17:23.576Z,1.93
2024-01-25T20:19:50.820Z,2.07
2024-01-25T20:22:17.951Z,1.37
2024-01-25T20:24:46.255Z,1.50
2024-01-25T20:27:13.364Z,1.43
2024-01-25T20:29:40.432Z,1.47
2024-01-25T20:32:07.795Z,1.03
2024-01-25T20:34:35.284Z,2.23
2024-01-25T20:37:02.881Z,1.73
2024-01-25T20:39:30.031Z,1.53
2024-01-25T20:41:57.186Z,0.67
2024-01-25T20:44:24.324Z,1.73
2024-01-25T20:46:53.477Z,1.30
2024-01-25T20:49:20.768Z,1.50
2024-01-25T20:51:47.956Z,1.60
2024-01-25T20:54:15.148Z,1.40
2024-01-25T20:56:42.319Z,0.90
2024-01-25T20:59:11.218Z,1.30
2024-01-25T21:01:39.174Z,1.10
2024-01-25T21:04:06.870Z,1.30
2024-01-25T21:06:34.342Z,1.00
2024-01-25T21:09:01.764Z,1.17
2024-01-25T21:11:29.007Z,1.03
2024-01-25T21:13:56.337Z,0.90
2024-01-25T21:16:25.437Z,1.20
2024-01-25T21:18:53.090Z,1.30
2024-01-25T21:21:21.058Z,1.03
2024-01-25T21:23:48.602Z,1.00
2024-01-25T21:26:15.693Z,1.10
2024-01-25T21:28:45.100Z,1.10
2024-01-25T21:31:12.387Z,0.93
2024-01-25T21:33:39.586Z,1.33
2024-01-25T21:36:07.328Z,1.00
2024-01-25T21:38:35.176Z,1.17
2024-01-25T21:41:02.552Z,1.47
2024-01-25T21:43:29.679Z,1.10
2024-01-25T21:45:56.810Z,1.23
2024-01-25T21:48:24.157Z,2.30
2024-01-25T21:50:51.318Z,3.00
2024-01-25T21:53:18.458Z,3.33
2024-01-25T21:55:46.194Z,1.97
2024-01-25T21:58:13.824Z,1.20
2024-01-25T22:00:42.732Z,1.80
2024-01-25T22:03:10.152Z,2.90
2024-01-25T22:05:37.491Z,1.20
2024-01-25T22:08:05.000Z,0.50
2024-01-25T22:10:32.167Z,1.00
2024-01-25T22:12:59.921Z,0.70
2024-01-25T22:15:27.172Z,0.80
2024-01-25T22:17:54.406Z,0.80
2024-01-25T22:20:21.587Z,0.70
2024-01-25T22:22:48.680Z,0.70
2024-01-25T22:25:15.772Z,0.90
2024-01-25T22:27:43.105Z,1.30
2024-01-25T22:30:11.375Z,1.10
2024-01-25T22:32:38.360Z,0.80
2024-01-25T22:35:06.064Z,1.70
2024-01-25T22:37:33.229Z,1.07
2024-01-25T22:40:00.362Z,3.00
2024-01-25T22:42:27.614Z,2.70
2024-01-25T22:44:54.704Z,1.83
2024-01-25T22:47:21.788Z,2.10
2024-01-25T22:49:48.866Z,1.80
2024-01-25T22:52:15.870Z,2.50
2024-01-25T22:54:44.268Z,1.30
2024-01-25T22:57:13.156Z,2.03
2024-01-25T22:59:40.239Z,1.77
2024-01-25T23:02:07.272Z,1.60
2024-01-25T23:04:34.267Z,0.90
2024-01-25T23:07:01.369Z,1.13
2024-01-25T23:09:28.628Z,1.00
2024-01-25T23:11:55.641Z,0.60
2024-01-25T23:14:23.286Z,0.90
2024-01-25T23:16:50.360Z,0.87
2024-01-25T23:19:17.546Z,1.00
2024-01-25T23:21:45.465Z,0.60
2024-01-25T23:24:13.254Z,1.20
2024-01-25T23:26:41.835Z,0.90
2024-01-25T23:29:08.989Z,0.80
2024-01-25T23:31:36.027Z,1.30
2024-01-25T23:34:04.636Z,0.90
2024-01-25T23:36:31.926Z,0.90
2024-01-25T23:38:58.956Z,0.80
2024-01-25T23:41:27.470Z,0.67
2024-01-25T23:43:54.755Z,0.77
2024-01-25T23:46:25.085Z,0.80
2024-01-25T23:48:52.564Z,0.70
2024-01-25T23:51:20.290Z,0.70
2024-01-25T23:53:47.465Z,0.77
2024-01-25T23:56:14.528Z,0.60
2024-01-25T23:58:41.783Z,0.80
